sensor_id;sensor_type;location;lat;lon;timestamp;pressure;altitude;pressure_sealevel;temperature;humidity
23427;BME280;41148;45.420;10.952;2023-04-25T00:01:23;99999.25;;;13.82;73.96
23427;BME280;41148;45.420;10.952;2023-04-25T00:03:51;100003.66;;;13.83;73.49
23427;BME280;41148;45.420;10.952;2023-04-25T00:06:19;100015.22;;;13.84;73.37
23427;BME280;41148;45.420;10.952;2023-04-25T00:08:47;99998.06;;;13.88;73.47
23427;BME280;41148;45.420;10.952;2023-04-25T00:11:15;99996.41;;;13.85;73.37
23427;BME280;41148;45.420;10.952;2023-04-25T00:13:42;99998.88;;;13.72;75.24
23427;BME280;41148;45.420;10.952;2023-04-25T00:16:09;99991.78;;;13.54;78.81
23427;BME280;41148;45.420;10.952;2023-04-25T00:18:38;99998.53;;;13.44;80.61
23427;BME280;41148;45.420;10.952;2023-04-25T00:21:05;100001.38;;;13.24;82.70
23427;BME280;41148;45.420;10.952;2023-04-25T00:23:33;99991.53;;;13.24;84.27
23427;BME280;41148;45.420;10.952;2023-04-25T00:26:02;100003.88;;;13.08;88.02
23427;BME280;41148;45.420;10.952;2023-04-25T00:28:30;99978.25;;;13.04;89.09
23427;BME280;41148;45.420;10.952;2023-04-25T00:30:57;99998.09;;;13.17;88.76
23427;BME280;41148;45.420;10.952;2023-04-25T00:33:25;99996.09;;;13.03;85.25
23427;BME280;41148;45.420;10.952;2023-04-25T00:35:53;99989.72;;;13.06;89.36
23427;BME280;41148;45.420;10.952;2023-04-25T00:38:20;99984.47;;;13.04;88.39
23427;BME280;41148;45.420;10.952;2023-04-25T00:40:47;99979.56;;;12.95;87.34
23427;BME280;41148;45.420;10.952;2023-04-25T00:43:15;99961.56;;;12.99;85.10
23427;BME280;41148;45.420;10.952;2023-04-25T00:45:42;99976.44;;;13.04;83.53
23427;BME280;41148;45.420;10.952;2023-04-25T00:48:10;99972.81;;;13.05;84.20
23427;BME280;41148;45.420;10.952;2023-04-25T00:50:38;99967.47;;;13.05;82.68
23427;BME280;41148;45.420;10.952;2023-04-25T00:53:06;99962.50;;;12.98;83.46
23427;BME280;41148;45.420;10.952;2023-04-25T00:55:33;99958.97;;;12.97;81.69
23427;BME280;41148;45.420;10.952;2023-04-25T00:58:03;99961.34;;;13.03;82.48
23427;BME280;41148;45.420;10.952;2023-04-25T01:00:30;99962.25;;;13.02;81.89
23427;BME280;41148;45.420;10.952;2023-04-25T01:02:58;99963.16;;;13.03;82.18
23427;BME280;41148;45.420;10.952;2023-04-25T01:05:27;99962.13;;;13.05;81.70
23427;BME280;41148;45.420;10.952;2023-04-25T01:07:58;99957.31;;;13.12;79.78
23427;BME280;41148;45.420;10.952;2023-04-25T01:10:27;99954.22;;;13.02;79.47
23427;BME280;41148;45.420;10.952;2023-04-25T01:12:54;99948.50;;;13.10;81.99
23427;BME280;41148;45.420;10.952;2023-04-25T01:15:22;99950.47;;;13.25;79.68
23427;BME280;41148;45.420;10.952;2023-04-25T01:17:49;99951.63;;;13.20;79.61
23427;BME280;41148;45.420;10.952;2023-04-25T01:20:17;99935.63;;;13.18;79.94
23427;BME280;41148;45.420;10.952;2023-04-25T01:22:45;99945.63;;;13.14;79.90
23427;BME280;41148;45.420;10.952;2023-04-25T01:25:14;99947.94;;;13.22;78.99
23427;BME280;41148;45.420;10.952;2023-04-25T01:27:41;99945.31;;;13.21;78.78
23427;BME280;41148;45.420;10.952;2023-04-25T01:30:09;99944.31;;;13.23;79.36
23427;BME280;41148;45.420;10.952;2023-04-25T01:32:42;99953.84;;;13.29;77.59
23427;BME280;41148;45.420;10.952;2023-04-25T01:35:11;99935.56;;;13.20;78.73
23427;BME280;41148;45.420;10.952;2023-04-25T01:37:40;99950.38;;;13.27;77.75
23427;BME280;41148;45.420;10.952;2023-04-25T01:40:10;99943.03;;;13.30;77.41
23427;BME280;41148;45.420;10.952;2023-04-25T01:42:39;99950.53;;;13.24;77.67
23427;BME280;41148;45.420;10.952;2023-04-25T01:45:09;99949.34;;;13.29;77.57
23427;BME280;41148;45.420;10.952;2023-04-25T01:47:38;99950.84;;;13.35;76.82
23427;BME280;41148;45.420;10.952;2023-04-25T01:50:11;99953.38;;;13.38;76.61
23427;BME280;41148;45.420;10.952;2023-04-25T01:52:39;99944.63;;;13.34;76.47
23427;BME280;41148;45.420;10.952;2023-04-25T01:55:07;99946.28;;;13.37;76.44
23427;BME280;41148;45.420;10.952;2023-04-25T01:57:37;99931.34;;;13.33;75.96
23427;BME280;41148;45.420;10.952;2023-04-25T02:00:06;99955.88;;;13.41;73.57
23427;BME280;41148;45.420;10.952;2023-04-25T02:02:39;99930.47;;;13.32;73.84
23427;BME280;41148;45.420;10.952;2023-04-25T02:05:22;99933.16;;;13.32;74.78
23427;BME280;41148;45.420;10.952;2023-04-25T02:07:51;99939.91;;;13.39;75.26
23427;BME280;41148;45.420;10.952;2023-04-25T02:10:18;99921.25;;;13.38;74.77
23427;BME280;41148;45.420;10.952;2023-04-25T02:12:56;99915.81;;;13.39;74.00
23427;BME280;41148;45.420;10.952;2023-04-25T02:15:40;99909.59;;;13.39;73.29
23427;BME280;41148;45.420;10.952;2023-04-25T02:18:18;99907.88;;;13.38;74.01
23427;BME280;41148;45.420;10.952;2023-04-25T02:20:46;99889.31;;;13.35;73.96
23427;BME280;41148;45.420;10.952;2023-04-25T02:23:14;99894.59;;;13.36;73.71
23427;BME280;41148;45.420;10.952;2023-04-25T02:25:42;99901.66;;;13.37;73.60
23427;BME280;41148;45.420;10.952;2023-04-25T02:28:10;99898.91;;;13.39;72.90
23427;BME280;41148;45.420;10.952;2023-04-25T02:30:38;99902.31;;;13.42;72.49
23427;BME280;41148;45.420;10.952;2023-04-25T02:33:05;99894.81;;;13.49;72.79
23427;BME280;41148;45.420;10.952;2023-04-25T02:35:33;99914.94;;;13.56;74.33
23427;BME280;41148;45.420;10.952;2023-04-25T02:38:00;99920.78;;;13.47;73.32
23427;BME280;41148;45.420;10.952;2023-04-25T02:40:28;99907.97;;;13.54;75.65
23427;BME280;41148;45.420;10.952;2023-04-25T02:42:55;99901.66;;;13.55;72.87
23427;BME280;41148;45.420;10.952;2023-04-25T02:45:23;99882.22;;;13.51;73.06
23427;BME280;41148;45.420;10.952;2023-04-25T02:47:50;99864.25;;;13.70;72.32
23427;BME280;41148;45.420;10.952;2023-04-25T02:50:19;99871.38;;;13.70;70.79
23427;BME280;41148;45.420;10.952;2023-04-25T02:52:46;99848.41;;;13.66;69.56
23427;BME280;41148;45.420;10.952;2023-04-25T02:55:18;99862.66;;;13.66;69.42
23427;BME280;41148;45.420;10.952;2023-04-25T02:57:46;99859.53;;;13.58;66.71
23427;BME280;41148;45.420;10.952;2023-04-25T03:00:21;99866.38;;;13.64;67.88
23427;BME280;41148;45.420;10.952;2023-04-25T03:03:08;99870.97;;;13.62;67.24
23427;BME280;41148;45.420;10.952;2023-04-25T03:05:36;99859.53;;;13.58;67.63
23427;BME280;41148;45.420;10.952;2023-04-25T03:08:03;99842.97;;;13.52;67.00
23427;BME280;41148;45.420;10.952;2023-04-25T03:10:32;99850.03;;;13.53;67.41
23427;BME280;41148;45.420;10.952;2023-04-25T03:13:04;99868.59;;;13.56;66.58
23427;BME280;41148;45.420;10.952;2023-04-25T03:15:31;99860.47;;;13.57;67.12
23427;BME280;41148;45.420;10.952;2023-04-25T03:17:59;99877.75;;;13.52;68.55
23427;BME280;41148;45.420;10.952;2023-04-25T03:20:26;99880.56;;;13.49;70.49
23427;BME280;41148;45.420;10.952;2023-04-25T03:22:54;99897.34;;;13.52;71.87
23427;BME280;41148;45.420;10.952;2023-04-25T03:25:22;99887.50;;;13.53;72.05
23427;BME280;41148;45.420;10.952;2023-04-25T03:27:49;99902.59;;;13.54;68.08
23427;BME280;41148;45.420;10.952;2023-04-25T03:30:17;99883.25;;;13.49;68.43
23427;BME280;41148;45.420;10.952;2023-04-25T03:32:45;99891.91;;;13.54;67.73
23427;BME280;41148;45.420;10.952;2023-04-25T03:35:16;99887.31;;;13.56;68.53
23427;BME280;41148;45.420;10.952;2023-04-25T03:37:43;99885.91;;;13.49;68.93
23427;BME280;41148;45.420;10.952;2023-04-25T03:40:17;99879.22;;;13.40;68.74
23427;BME280;41148;45.420;10.952;2023-04-25T03:43:05;99887.13;;;13.43;69.49
23427;BME280;41148;45.420;10.952;2023-04-25T03:45:33;99881.13;;;13.38;69.85
23427;BME280;41148;45.420;10.952;2023-04-25T03:48:01;99883.63;;;13.41;70.42
23427;BME280;41148;45.420;10.952;2023-04-25T03:50:30;99868.78;;;13.35;69.06
23427;BME280;41148;45.420;10.952;2023-04-25T03:52:57;99854.63;;;13.33;69.73
23427;BME280;41148;45.420;10.952;2023-04-25T03:55:27;99864.28;;;13.36;70.00
23427;BME280;41148;45.420;10.952;2023-04-25T03:57:55;99884.75;;;13.37;69.27
23427;BME280;41148;45.420;10.952;2023-04-25T04:00:23;99884.75;;;13.37;69.20
23427;BME280;41148;45.420;10.952;2023-04-25T04:02:52;99893.72;;;13.36;70.03
23427;BME280;41148;45.420;10.952;2023-04-25T04:05:19;99896.63;;;13.31;70.56
23427;BME280;41148;45.420;10.952;2023-04-25T04:07:53;99899.28;;;13.31;70.40
23427;BME280;41148;45.420;10.952;2023-04-25T04:10:22;99897.66;;;13.46;70.14
23427;BME280;41148;45.420;10.952;2023-04-25T04:12:50;99892.00;;;13.35;70.69
23427;BME280;41148;45.420;10.952;2023-04-25T04:15:18;99894.19;;;13.27;71.36
23427;BME280;41148;45.420;10.952;2023-04-25T04:17:47;99896.78;;;13.28;72.27
23427;BME280;41148;45.420;10.952;2023-04-25T04:20:15;99905.38;;;13.35;72.24
23427;BME280;41148;45.420;10.952;2023-04-25T04:22:42;99891.81;;;13.38;70.82
23427;BME280;41148;45.420;10.952;2023-04-25T04:25:12;99904.25;;;13.39;71.52
23427;BME280;41148;45.420;10.952;2023-04-25T04:28:09;99887.34;;;13.38;70.11
23427;BME280;41148;45.420;10.952;2023-04-25T04:30:49;99894.41;;;13.39;68.96
23427;BME280;41148;45.420;10.952;2023-04-25T04:33:18;99875.28;;;13.47;70.13
23427;BME280;41148;45.420;10.952;2023-04-25T04:35:51;99867.28;;;13.47;68.89
23427;BME280;41148;45.420;10.952;2023-04-25T04:38:19;99874.25;;;13.50;67.65
23427;BME280;41148;45.420;10.952;2023-04-25T04:40:49;99883.69;;;13.57;66.57
23427;BME280;41148;45.420;10.952;2023-04-25T04:43:25;99878.63;;;13.35;67.89
23427;BME280;41148;45.420;10.952;2023-04-25T04:46:07;99903.72;;;13.32;66.75
23427;BME280;41148;45.420;10.952;2023-04-25T04:48:53;99906.88;;;13.23;67.54
23427;BME280;41148;45.420;10.952;2023-04-25T04:51:47;99917.16;;;13.13;67.87
23427;BME280;41148;45.420;10.952;2023-04-25T04:54:38;99905.28;;;13.19;68.55
23427;BME280;41148;45.420;10.952;2023-04-25T04:57:14;99942.50;;;13.24;68.71
23427;BME280;41148;45.420;10.952;2023-04-25T04:59:56;99961.06;;;13.27;68.95
23427;BME280;41148;45.420;10.952;2023-04-25T05:02:42;99982.47;;;13.27;69.77
23427;BME280;41148;45.420;10.952;2023-04-25T05:05:48;99995.69;;;13.30;69.38
23427;BME280;41148;45.420;10.952;2023-04-25T05:08:34;100005.84;;;13.23;68.78
23427;BME280;41148;45.420;10.952;2023-04-25T05:11:19;100046.91;;;13.03;72.70
23427;BME280;41148;45.420;10.952;2023-04-25T05:13:53;100088.06;;;12.22;79.69
23427;BME280;41148;45.420;10.952;2023-04-25T05:16:40;100096.97;;;10.93;84.77
23427;BME280;41148;45.420;10.952;2023-04-25T05:19:37;100069.78;;;10.12;87.05
23427;BME280;41148;45.420;10.952;2023-04-25T05:22:17;100049.75;;;9.77;90.11
23427;BME280;41148;45.420;10.952;2023-04-25T05:25:11;100070.63;;;9.62;93.81
23427;BME280;41148;45.420;10.952;2023-04-25T05:28:08;100056.97;;;9.20;97.72
23427;BME280;41148;45.420;10.952;2023-04-25T05:30:44;100075.34;;;9.28;98.55
23427;BME280;41148;45.420;10.952;2023-04-25T05:33:27;100077.44;;;9.44;97.93
23427;BME280;41148;45.420;10.952;2023-04-25T05:35:55;100054.41;;;9.43;97.95
23427;BME280;41148;45.420;10.952;2023-04-25T05:38:24;100069.06;;;9.57;97.63
23427;BME280;41148;45.420;10.952;2023-04-25T05:41:10;100064.81;;;9.51;94.36
23427;BME280;41148;45.420;10.952;2023-04-25T05:43:41;100031.22;;;9.49;94.75
23427;BME280;41148;45.420;10.952;2023-04-25T05:46:31;100014.28;;;9.51;96.88
23427;BME280;41148;45.420;10.952;2023-04-25T05:49:20;100020.41;;;9.53;96.51
23427;BME280;41148;45.420;10.952;2023-04-25T05:52:23;100024.34;;;9.68;100.00
23427;BME280;41148;45.420;10.952;2023-04-25T05:55:01;100018.09;;;9.69;100.00
23427;BME280;41148;45.420;10.952;2023-04-25T05:57:30;100027.72;;;9.98;99.99
23427;BME280;41148;45.420;10.952;2023-04-25T05:59:59;100020.78;;;10.17;98.14
23427;BME280;41148;45.420;10.952;2023-04-25T06:02:39;100015.03;;;10.29;98.13
23427;BME280;41148;45.420;10.952;2023-04-25T06:05:08;100004.13;;;10.12;98.53
23427;BME280;41148;45.420;10.952;2023-04-25T06:07:36;100030.09;;;10.30;100.00
23427;BME280;41148;45.420;10.952;2023-04-25T06:10:04;100029.94;;;10.35;100.00
23427;BME280;41148;45.420;10.952;2023-04-25T06:12:33;100011.56;;;10.27;100.00
23427;BME280;41148;45.420;10.952;2023-04-25T06:15:01;100023.03;;;10.29;100.00
23427;BME280;41148;45.420;10.952;2023-04-25T06:17:31;100027.03;;;10.41;100.00
23427;BME280;41148;45.420;10.952;2023-04-25T06:19:59;100029.81;;;10.38;100.00
23427;BME280;41148;45.420;10.952;2023-04-25T06:22:26;100013.88;;;10.37;100.00
23427;BME280;41148;45.420;10.952;2023-04-25T06:24:53;100026.78;;;10.47;100.00
23427;BME280;41148;45.420;10.952;2023-04-25T06:27:24;100032.13;;;10.47;100.00
23427;BME280;41148;45.420;10.952;2023-04-25T06:29:52;100016.44;;;10.40;100.00
23427;BME280;41148;45.420;10.952;2023-04-25T06:32:19;100031.72;;;10.35;100.00
23427;BME280;41148;45.420;10.952;2023-04-25T06:34:47;100016.84;;;10.29;100.00
23427;BME280;41148;45.420;10.952;2023-04-25T06:37:14;100005.03;;;10.36;100.00
23427;BME280;41148;45.420;10.952;2023-04-25T06:39:42;100017.72;;;10.53;100.00
23427;BME280;41148;45.420;10.952;2023-04-25T06:42:10;100003.41;;;10.55;100.00
23427;BME280;41148;45.420;10.952;2023-04-25T06:44:55;99984.75;;;10.55;100.00
23427;BME280;41148;45.420;10.952;2023-04-25T06:47:24;99995.94;;;10.65;99.86
23427;BME280;41148;45.420;10.952;2023-04-25T06:49:51;100008.50;;;10.62;100.00
23427;BME280;41148;45.420;10.952;2023-04-25T06:52:19;99990.38;;;10.71;100.00
23427;BME280;41148;45.420;10.952;2023-04-25T06:54:47;99974.31;;;10.73;100.00
23427;BME280;41148;45.420;10.952;2023-04-25T06:57:23;99948.41;;;10.76;97.45
23427;BME280;41148;45.420;10.952;2023-04-25T06:59:52;99930.63;;;10.77;97.53
23427;BME280;41148;45.420;10.952;2023-04-25T07:02:19;99951.88;;;11.00;94.32
23427;BME280;41148;45.420;10.952;2023-04-25T07:04:51;99963.91;;;11.10;96.01
23427;BME280;41148;45.420;10.952;2023-04-25T07:07:18;99962.44;;;11.24;93.40
23427;BME280;41148;45.420;10.952;2023-04-25T07:09:53;99965.06;;;11.45;91.61
23427;BME280;41148;45.420;10.952;2023-04-25T07:12:21;99960.41;;;11.30;90.74
23427;BME280;41148;45.420;10.952;2023-04-25T07:14:48;99966.25;;;11.38;90.87
23427;BME280;41148;45.420;10.952;2023-04-25T07:17:16;99986.22;;;11.28;89.47
23427;BME280;41148;45.420;10.952;2023-04-25T07:19:43;99965.50;;;11.35;88.11
23427;BME280;41148;45.420;10.952;2023-04-25T07:22:11;99972.78;;;11.31;86.30
23427;BME280;41148;45.420;10.952;2023-04-25T07:24:41;99969.97;;;11.34;87.91
23427;BME280;41148;45.420;10.952;2023-04-25T07:27:12;99951.94;;;11.19;91.65
23427;BME280;41148;45.420;10.952;2023-04-25T07:30:06;99951.88;;;11.00;93.76
23427;BME280;41148;45.420;10.952;2023-04-25T07:32:34;99967.75;;;10.81;93.28
23427;BME280;41148;45.420;10.952;2023-04-25T07:35:02;99965.13;;;10.80;95.06
23427;BME280;41148;45.420;10.952;2023-04-25T07:37:30;99969.09;;;10.70;94.92
23427;BME280;41148;45.420;10.952;2023-04-25T07:40:07;99966.00;;;10.58;97.19
23427;BME280;41148;45.420;10.952;2023-04-25T07:42:41;99949.84;;;10.63;99.89
23427;BME280;41148;45.420;10.952;2023-04-25T07:45:09;99961.09;;;10.70;99.84
23427;BME280;41148;45.420;10.952;2023-04-25T07:47:39;99947.28;;;10.60;98.20
23427;BME280;41148;45.420;10.952;2023-04-25T07:50:07;99936.31;;;10.68;96.91
23427;BME280;41148;45.420;10.952;2023-04-25T07:52:34;99914.94;;;10.69;94.07
23427;BME280;41148;45.420;10.952;2023-04-25T07:55:28;99912.09;;;10.74;90.71
23427;BME280;41148;45.420;10.952;2023-04-25T07:58:07;99945.94;;;10.72;91.63
23427;BME280;41148;45.420;10.952;2023-04-25T08:00:39;99958.44;;;10.70;90.88
23427;BME280;41148;45.420;10.952;2023-04-25T08:03:23;99948.53;;;10.73;88.48
23427;BME280;41148;45.420;10.952;2023-04-25T08:05:51;99931.06;;;10.66;88.46
23427;BME280;41148;45.420;10.952;2023-04-25T08:08:20;99944.00;;;10.75;85.85
23427;BME280;41148;45.420;10.952;2023-04-25T08:10:47;99964.31;;;11.00;85.50
23427;BME280;41148;45.420;10.952;2023-04-25T08:13:18;99957.03;;;11.25;86.60
23427;BME280;41148;45.420;10.952;2023-04-25T08:15:45;99940.56;;;11.36;86.61
23427;BME280;41148;45.420;10.952;2023-04-25T08:18:13;99946.78;;;11.57;82.25
23427;BME280;41148;45.420;10.952;2023-04-25T08:20:44;99949.50;;;11.75;81.71
23427;BME280;41148;45.420;10.952;2023-04-25T08:23:13;99938.19;;;11.70;81.17
23427;BME280;41148;45.420;10.952;2023-04-25T08:25:52;99973.81;;;11.90;81.13
23427;BME280;41148;45.420;10.952;2023-04-25T08:28:24;99980.16;;;12.26;77.85
23427;BME280;41148;45.420;10.952;2023-04-25T08:30:52;99992.59;;;12.46;77.79
23427;BME280;41148;45.420;10.952;2023-04-25T08:33:20;100011.94;;;12.70;77.43
23427;BME280;41148;45.420;10.952;2023-04-25T08:36:01;99997.34;;;12.96;78.56
23427;BME280;41148;45.420;10.952;2023-04-25T08:38:30;99986.03;;;13.44;71.00
23427;BME280;41148;45.420;10.952;2023-04-25T08:41:00;100001.75;;;13.85;71.38
23427;BME280;41148;45.420;10.952;2023-04-25T08:43:29;99994.03;;;13.96;70.85
23427;BME280;41148;45.420;10.952;2023-04-25T08:46:02;99996.69;;;14.14;68.24
23427;BME280;41148;45.420;10.952;2023-04-25T08:48:45;100004.31;;;14.54;65.24
23427;BME280;41148;45.420;10.952;2023-04-25T08:51:19;100009.66;;;14.54;66.32
23427;BME280;41148;45.420;10.952;2023-04-25T08:53:53;100012.25;;;14.56;67.48
23427;BME280;41148;45.420;10.952;2023-04-25T08:56:27;100012.47;;;14.69;64.35
23427;BME280;41148;45.420;10.952;2023-04-25T08:58:55;100000.28;;;14.79;63.53
23427;BME280;41148;45.420;10.952;2023-04-25T09:01:23;99993.19;;;14.78;61.94
23427;BME280;41148;45.420;10.952;2023-04-25T09:03:53;100000.41;;;15.23;59.50
23427;BME280;41148;45.420;10.952;2023-04-25T09:06:21;100003.81;;;15.57;57.17
23427;BME280;41148;45.420;10.952;2023-04-25T09:08:50;99994.09;;;15.70;56.80
23427;BME280;41148;45.420;10.952;2023-04-25T09:11:18;99997.53;;;16.30;55.89
23427;BME280;41148;45.420;10.952;2023-04-25T09:14:10;99993.13;;;16.44;54.35
23427;BME280;41148;45.420;10.952;2023-04-25T09:19:39;100005.50;;;16.18;55.86
23427;BME280;41148;45.420;10.952;2023-04-25T09:22:22;99990.13;;;16.20;58.39
23427;BME280;41148;45.420;10.952;2023-04-25T09:24:50;99999.41;;;17.00;56.50
23427;BME280;41148;45.420;10.952;2023-04-25T09:27:21;99995.16;;;17.77;51.69
23427;BME280;41148;45.420;10.952;2023-04-25T09:30:16;100005.63;;;17.54;53.43
23427;BME280;41148;45.420;10.952;2023-04-25T09:33:10;99987.16;;;16.24;54.97
23427;BME280;41148;45.420;10.952;2023-04-25T09:35:42;99991.88;;;15.46;56.17
23427;BME280;41148;45.420;10.952;2023-04-25T09:38:18;100020.75;;;15.11;57.44
23427;BME280;41148;45.420;10.952;2023-04-25T09:40:54;100014.88;;;15.05;58.73
23427;BME280;41148;45.420;10.952;2023-04-25T09:43:32;100007.19;;;14.99;59.50
23427;BME280;41148;45.420;10.952;2023-04-25T09:46:00;100018.84;;;15.13;61.42
23427;BME280;41148;45.420;10.952;2023-04-25T09:48:29;99998.75;;;15.36;62.06
23427;BME280;41148;45.420;10.952;2023-04-25T09:51:10;100015.72;;;15.37;59.53
23427;BME280;41148;45.420;10.952;2023-04-25T09:53:40;100011.84;;;15.27;59.76
23427;BME280;41148;45.420;10.952;2023-04-25T09:56:21;100015.94;;;15.02;58.76
23427;BME280;41148;45.420;10.952;2023-04-25T09:58:50;100022.00;;;15.06;61.09
23427;BME280;41148;45.420;10.952;2023-04-25T10:01:20;100024.41;;;15.10;61.91
23427;BME280;41148;45.420;10.952;2023-04-25T10:04:01;100014.06;;;15.34;61.04
23427;BME280;41148;45.420;10.952;2023-04-25T10:06:55;100013.38;;;15.31;61.84
23427;BME280;41148;45.420;10.952;2023-04-25T10:09:25;100010.50;;;15.34;62.46
23427;BME280;41148;45.420;10.952;2023-04-25T10:11:54;100018.84;;;15.45;62.63
23427;BME280;41148;45.420;10.952;2023-04-25T10:14:24;100004.94;;;15.53;61.76
23427;BME280;41148;45.420;10.952;2023-04-25T10:16:53;100022.19;;;15.64;62.89
23427;BME280;41148;45.420;10.952;2023-04-25T10:19:23;100005.88;;;15.67;64.97
23427;BME280;41148;45.420;10.952;2023-04-25T10:22:17;100009.53;;;15.66;62.77
23427;BME280;41148;45.420;10.952;2023-04-25T10:24:46;100006.31;;;15.60;61.96
23427;BME280;41148;45.420;10.952;2023-04-25T10:27:14;100013.19;;;15.50;63.02
23427;BME280;41148;45.420;10.952;2023-04-25T10:29:41;100008.16;;;15.43;63.48
23427;BME280;41148;45.420;10.952;2023-04-25T10:32:10;99999.75;;;15.50;62.29
23427;BME280;41148;45.420;10.952;2023-04-25T10:34:43;99998.69;;;15.52;61.05
23427;BME280;41148;45.420;10.952;2023-04-25T10:37:15;100003.88;;;15.71;60.41
23427;BME280;41148;45.420;10.952;2023-04-25T10:39:42;100006.28;;;15.76;61.84
23427;BME280;41148;45.420;10.952;2023-04-25T10:42:11;100011.44;;;15.94;62.66
23427;BME280;41148;45.420;10.952;2023-04-25T10:44:40;100019.34;;;15.82;60.52
23427;BME280;41148;45.420;10.952;2023-04-25T10:47:08;100016.19;;;15.75;61.60
23427;BME280;41148;45.420;10.952;2023-04-25T10:49:37;100015.88;;;15.65;60.81
23427;BME280;41148;45.420;10.952;2023-04-25T10:54:55;100009.63;;;15.65;60.04
23427;BME280;41148;45.420;10.952;2023-04-25T11:00:07;100025.97;;;15.76;61.65
23427;BME280;41148;45.420;10.952;2023-04-25T11:03:01;100024.78;;;15.66;60.94
23427;BME280;41148;45.420;10.952;2023-04-25T11:05:36;100034.41;;;15.38;62.46
23427;BME280;41148;45.420;10.952;2023-04-25T11:08:48;100008.88;;;15.31;63.35
23427;BME280;41148;45.420;10.952;2023-04-25T11:11:18;100033.69;;;15.51;62.47
23427;BME280;41148;45.420;10.952;2023-04-25T11:13:49;100033.88;;;15.48;62.94
23427;BME280;41148;45.420;10.952;2023-04-25T11:16:17;100025.09;;;15.60;64.55
23427;BME280;41148;45.420;10.952;2023-04-25T11:18:56;100024.88;;;15.64;63.20
23427;BME280;41148;45.420;10.952;2023-04-25T11:21:27;100021.44;;;15.77;63.00
23427;BME280;41148;45.420;10.952;2023-04-25T11:23:59;100010.81;;;15.75;61.67
23427;BME280;41148;45.420;10.952;2023-04-25T11:26:27;100005.44;;;15.75;62.43
23427;BME280;41148;45.420;10.952;2023-04-25T11:28:58;100007.41;;;15.71;60.81
23427;BME280;41148;45.420;10.952;2023-04-25T11:31:29;100019.53;;;15.79;62.10
23427;BME280;41148;45.420;10.952;2023-04-25T11:33:57;100010.41;;;15.67;61.73
23427;BME280;41148;45.420;10.952;2023-04-25T11:36:26;100023.38;;;15.89;60.45
23427;BME280;41148;45.420;10.952;2023-04-25T11:39:02;100025.22;;;15.88;59.35
23427;BME280;41148;45.420;10.952;2023-04-25T11:41:30;100019.94;;;15.87;59.65
23427;BME280;41148;45.420;10.952;2023-04-25T11:43:58;100030.31;;;15.63;60.73
23427;BME280;41148;45.420;10.952;2023-04-25T11:46:26;100018.03;;;15.43;60.42
23427;BME280;41148;45.420;10.952;2023-04-25T11:49:00;100021.91;;;15.53;61.60
23427;BME280;41148;45.420;10.952;2023-04-25T11:51:50;100033.78;;;15.65;61.40
23427;BME280;41148;45.420;10.952;2023-04-25T11:54:17;100019.50;;;15.49;61.66
23427;BME280;41148;45.420;10.952;2023-04-25T11:56:48;100016.13;;;15.61;62.72
23427;BME280;41148;45.420;10.952;2023-04-25T11:59:16;100022.63;;;15.87;62.42
23427;BME280;41148;45.420;10.952;2023-04-25T12:01:48;100024.16;;;15.91;59.72
23427;BME280;41148;45.420;10.952;2023-04-25T12:04:21;100031.00;;;15.96;60.29
23427;BME280;41148;45.420;10.952;2023-04-25T12:06:54;100033.94;;;15.62;61.10
23427;BME280;41148;45.420;10.952;2023-04-25T12:09:30;100019.91;;;15.57;62.41
23427;BME280;41148;45.420;10.952;2023-04-25T12:12:00;100001.56;;;15.49;62.54
23427;BME280;41148;45.420;10.952;2023-04-25T12:14:33;100017.13;;;15.58;62.21
23427;BME280;41148;45.420;10.952;2023-04-25T12:17:03;100013.72;;;15.40;62.51
23427;BME280;41148;45.420;10.952;2023-04-25T12:19:33;100001.38;;;15.52;62.79
23427;BME280;41148;45.420;10.952;2023-04-25T12:22:02;99992.25;;;15.25;62.88
23427;BME280;41148;45.420;10.952;2023-04-25T12:24:33;99998.16;;;15.31;61.31
23427;BME280;41148;45.420;10.952;2023-04-25T12:27:06;100018.66;;;15.32;60.79
23427;BME280;41148;45.420;10.952;2023-04-25T12:29:35;100013.69;;;15.10;60.29
23427;BME280;41148;45.420;10.952;2023-04-25T12:32:06;100025.34;;;14.94;60.68
23427;BME280;41148;45.420;10.952;2023-04-25T12:34:33;100034.19;;;14.80;61.57
23427;BME280;41148;45.420;10.952;2023-04-25T12:37:03;100035.22;;;14.93;62.70
23427;BME280;41148;45.420;10.952;2023-04-25T12:39:30;100040.09;;;14.86;63.25
23427;BME280;41148;45.420;10.952;2023-04-25T12:41:58;100052.59;;;14.86;65.03
23427;BME280;41148;45.420;10.952;2023-04-25T12:44:26;100060.88;;;14.50;65.95
23427;BME280;41148;45.420;10.952;2023-04-25T12:46:54;100066.13;;;14.34;68.92
23427;BME280;41148;45.420;10.952;2023-04-25T12:49:22;100059.22;;;14.30;69.33
23427;BME280;41148;45.420;10.952;2023-04-25T12:51:49;100062.56;;;14.00;69.93
23427;BME280;41148;45.420;10.952;2023-04-25T12:54:18;100060.28;;;13.93;71.76
23427;BME280;41148;45.420;10.952;2023-04-25T12:56:45;100069.00;;;13.79;79.39
23427;BME280;41148;45.420;10.952;2023-04-25T12:59:13;100079.19;;;13.17;85.19
23427;BME280;41148;45.420;10.952;2023-04-25T13:01:41;100089.72;;;12.83;89.79
23427;BME280;41148;45.420;10.952;2023-04-25T13:04:08;100097.50;;;12.50;96.00
23427;BME280;41148;45.420;10.952;2023-04-25T13:06:36;100108.88;;;12.14;100.00
23427;BME280;41148;45.420;10.952;2023-04-25T13:09:03;100116.88;;;11.94;100.00
23427;BME280;41148;45.420;10.952;2023-04-25T13:11:30;100114.59;;;11.85;100.00
23427;BME280;41148;45.420;10.952;2023-04-25T13:13:58;100117.28;;;11.85;100.00
23427;BME280;41148;45.420;10.952;2023-04-25T13:16:25;100126.63;;;11.73;100.00
23427;BME280;41148;45.420;10.952;2023-04-25T13:18:53;100125.84;;;11.71;100.00